sensor_id;sensor_type;location;lat;lon;timestamp;P1;durP1;ratioP1;P2;durP2;ratioP2
55483;SDS011;41345;51.704;5.146;2023-05-07T00:04:12;163.90;;;154.75;;
55483;SDS011;41345;51.704;5.146;2023-05-07T00:09:13;160.82;;;152.05;;
55483;SDS011;41345;51.704;5.146;2023-05-07T00:14:13;171.45;;;162.02;;
55483;SDS011;41345;51.704;5.146;2023-05-07T00:19:13;171.75;;;162.07;;
55483;SDS011;41345;51.704;5.146;2023-05-07T00:24:13;165.27;;;156.10;;
55483;SDS011;41345;51.704;5.146;2023-05-07T00:29:14;165.85;;;156.15;;
55483;SDS011;41345;51.704;5.146;2023-05-07T00:34:14;153.77;;;144.97;;
55483;SDS011;41345;51.704;5.146;2023-05-07T00:39:14;153.52;;;145.07;;
55483;SDS011;41345;51.704;5.146;2023-05-07T00:44:15;139.75;;;132.00;;
55483;SDS011;41345;51.704;5.146;2023-05-07T00:49:15;135.85;;;128.32;;
55483;SDS011;41345;51.704;5.146;2023-05-07T00:54:16;151.05;;;142.70;;
55483;SDS011;41345;51.704;5.146;2023-05-07T00:59:16;153.73;;;145.43;;
55483;SDS011;41345;51.704;5.146;2023-05-07T01:04:16;141.73;;;133.88;;
55483;SDS011;41345;51.704;5.146;2023-05-07T01:09:17;157.90;;;149.10;;
55483;SDS011;41345;51.704;5.146;2023-05-07T01:14:17;155.45;;;146.45;;
55483;SDS011;41345;51.704;5.146;2023-05-07T01:19:18;139.50;;;131.38;;
55483;SDS011;41345;51.704;5.146;2023-05-07T01:24:19;144.75;;;136.77;;
55483;SDS011;41345;51.704;5.146;2023-05-07T01:29:19;143.30;;;135.65;;
55483;SDS011;41345;51.704;5.146;2023-05-07T01:34:20;142.90;;;134.77;;
55483;SDS011;41345;51.704;5.146;2023-05-07T01:39:22;149.60;;;141.38;;
55483;SDS011;41345;51.704;5.146;2023-05-07T01:44:23;146.02;;;138.18;;
55483;SDS011;41345;51.704;5.146;2023-05-07T01:49:23;155.85;;;147.13;;
55483;SDS011;41345;51.704;5.146;2023-05-07T01:54:27;154.02;;;145.35;;
55483;SDS011;41345;51.704;5.146;2023-05-07T01:59:30;160.82;;;151.82;;
55483;SDS011;41345;51.704;5.146;2023-05-07T02:04:30;151.77;;;143.40;;
55483;SDS011;41345;51.704;5.146;2023-05-07T02:09:31;148.10;;;139.82;;
55483;SDS011;41345;51.704;5.146;2023-05-07T02:14:31;148.40;;;139.90;;
55483;SDS011;41345;51.704;5.146;2023-05-07T02:19:31;146.00;;;137.30;;
55483;SDS011;41345;51.704;5.146;2023-05-07T02:24:32;145.53;;;137.37;;
55483;SDS011;41345;51.704;5.146;2023-05-07T02:29:32;143.25;;;135.15;;
55483;SDS011;41345;51.704;5.146;2023-05-07T02:34:32;150.85;;;142.43;;
55483;SDS011;41345;51.704;5.146;2023-05-07T02:39:33;151.07;;;142.47;;
55483;SDS011;41345;51.704;5.146;2023-05-07T02:44:33;131.77;;;124.03;;
55483;SDS011;41345;51.704;5.146;2023-05-07T02:49:35;143.93;;;135.82;;
55483;SDS011;41345;51.704;5.146;2023-05-07T02:54:35;134.52;;;126.72;;
55483;SDS011;41345;51.704;5.146;2023-05-07T02:59:36;135.52;;;127.53;;
55483;SDS011;41345;51.704;5.146;2023-05-07T03:04:36;149.93;;;141.10;;
55483;SDS011;41345;51.704;5.146;2023-05-07T03:09:36;155.88;;;146.32;;
55483;SDS011;41345;51.704;5.146;2023-05-07T03:14:37;144.00;;;135.43;;
55483;SDS011;41345;51.704;5.146;2023-05-07T03:19:37;152.63;;;143.47;;
55483;SDS011;41345;51.704;5.146;2023-05-07T03:24:37;142.45;;;133.85;;
55483;SDS011;41345;51.704;5.146;2023-05-07T03:29:38;131.57;;;124.17;;
55483;SDS011;41345;51.704;5.146;2023-05-07T03:34:38;129.70;;;122.00;;
55483;SDS011;41345;51.704;5.146;2023-05-07T03:39:38;135.48;;;127.35;;
55483;SDS011;41345;51.704;5.146;2023-05-07T03:44:39;140.73;;;131.98;;
55483;SDS011;41345;51.704;5.146;2023-05-07T03:49:39;155.57;;;145.95;;
55483;SDS011;41345;51.704;5.146;2023-05-07T03:54:40;174.82;;;165.07;;
55483;SDS011;41345;51.704;5.146;2023-05-07T03:59:40;163.85;;;154.45;;
55483;SDS011;41345;51.704;5.146;2023-05-07T04:04:40;157.02;;;147.93;;
55483;SDS011;41345;51.704;5.146;2023-05-07T04:09:41;138.63;;;130.27;;
55483;SDS011;41345;51.704;5.146;2023-05-07T04:14:41;144.53;;;135.93;;
55483;SDS011;41345;51.704;5.146;2023-05-07T04:19:41;137.75;;;129.07;;
55483;SDS011;41345;51.704;5.146;2023-05-07T04:24:45;147.07;;;137.70;;
55483;SDS011;41345;51.704;5.146;2023-05-07T04:29:45;146.93;;;137.70;;
55483;SDS011;41345;51.704;5.146;2023-05-07T04:34:47;146.80;;;138.05;;
55483;SDS011;41345;51.704;5.146;2023-05-07T04:39:47;141.03;;;132.63;;
55483;SDS011;41345;51.704;5.146;2023-05-07T04:44:48;142.30;;;133.43;;
55483;SDS011;41345;51.704;5.146;2023-05-07T04:54:52;159.27;;;149.55;;
55483;SDS011;41345;51.704;5.146;2023-05-07T04:59:53;148.07;;;138.93;;
55483;SDS011;41345;51.704;5.146;2023-05-07T05:04:53;146.00;;;137.05;;
55483;SDS011;41345;51.704;5.146;2023-05-07T05:09:54;153.20;;;143.40;;
55483;SDS011;41345;51.704;5.146;2023-05-07T05:14:54;155.43;;;145.07;;
55483;SDS011;41345;51.704;5.146;2023-05-07T05:19:54;153.18;;;143.45;;
55483;SDS011;41345;51.704;5.146;2023-05-07T05:24:56;160.68;;;150.07;;
55483;SDS011;41345;51.704;5.146;2023-05-07T05:29:56;168.98;;;157.70;;
55483;SDS011;41345;51.704;5.146;2023-05-07T05:34:56;172.52;;;161.30;;
55483;SDS011;41345;51.704;5.146;2023-05-07T05:39:57;158.30;;;148.07;;
55483;SDS011;41345;51.704;5.146;2023-05-07T05:44:57;152.67;;;142.90;;
55483;SDS011;41345;51.704;5.146;2023-05-07T05:49:57;150.75;;;140.35;;
55483;SDS011;41345;51.704;5.146;2023-05-07T05:54:58;153.77;;;143.67;;
55483;SDS011;41345;51.704;5.146;2023-05-07T05:59:58;146.93;;;136.77;;
55483;SDS011;41345;51.704;5.146;2023-05-07T06:04:58;141.32;;;131.75;;
55483;SDS011;41345;51.704;5.146;2023-05-07T06:09:59;141.60;;;132.00;;
55483;SDS011;41345;51.704;5.146;2023-05-07T06:14:59;164.60;;;153.47;;
55483;SDS011;41345;51.704;5.146;2023-05-07T06:19:59;167.50;;;155.38;;
55483;SDS011;41345;51.704;5.146;2023-05-07T06:25:00;139.13;;;128.68;;
55483;SDS011;41345;51.704;5.146;2023-05-07T06:30:00;152.85;;;142.13;;
55483;SDS011;41345;51.704;5.146;2023-05-07T06:35:00;141.07;;;131.15;;
55483;SDS011;41345;51.704;5.146;2023-05-07T06:40:01;147.00;;;136.35;;
55483;SDS011;41345;51.704;5.146;2023-05-07T06:45:01;145.53;;;134.73;;
55483;SDS011;41345;51.704;5.146;2023-05-07T06:50:02;140.23;;;129.93;;
55483;SDS011;41345;51.704;5.146;2023-05-07T06:55:03;147.13;;;136.77;;
55483;SDS011;41345;51.704;5.146;2023-05-07T07:00:03;149.23;;;138.43;;
55483;SDS011;41345;51.704;5.146;2023-05-07T07:05:07;142.83;;;133.03;;
55483;SDS011;41345;51.704;5.146;2023-05-07T07:10:07;140.60;;;130.48;;
55483;SDS011;41345;51.704;5.146;2023-05-07T07:15:07;133.80;;;124.18;;
55483;SDS011;41345;51.704;5.146;2023-05-07T07:20:08;130.73;;;121.15;;
55483;SDS011;41345;51.704;5.146;2023-05-07T07:25:08;131.57;;;122.10;;
55483;SDS011;41345;51.704;5.146;2023-05-07T07:30:09;132.35;;;122.72;;
55483;SDS011;41345;51.704;5.146;2023-05-07T07:35:09;137.07;;;127.07;;
55483;SDS011;41345;51.704;5.146;2023-05-07T07:40:11;144.55;;;134.20;;
55483;SDS011;41345;51.704;5.146;2023-05-07T07:45:11;127.20;;;118.18;;
55483;SDS011;41345;51.704;5.146;2023-05-07T07:50:12;121.03;;;112.28;;
55483;SDS011;41345;51.704;5.146;2023-05-07T07:55:12;115.25;;;106.78;;
55483;SDS011;41345;51.704;5.146;2023-05-07T08:00:13;123.75;;;114.85;;
55483;SDS011;41345;51.704;5.146;2023-05-07T08:05:13;124.15;;;115.35;;
55483;SDS011;41345;51.704;5.146;2023-05-07T08:10:13;124.80;;;116.20;;
55483;SDS011;41345;51.704;5.146;2023-05-07T08:15:20;131.27;;;121.97;;
55483;SDS011;41345;51.704;5.146;2023-05-07T08:20:21;129.98;;;120.38;;
55483;SDS011;41345;51.704;5.146;2023-05-07T08:25:21;126.18;;;117.20;;
55483;SDS011;41345;51.704;5.146;2023-05-07T08:30:21;106.30;;;98.63;;
55483;SDS011;41345;51.704;5.146;2023-05-07T08:35:22;108.03;;;100.70;;
55483;SDS011;41345;51.704;5.146;2023-05-07T08:40:25;113.40;;;105.50;;
55483;SDS011;41345;51.704;5.146;2023-05-07T08:45:25;123.25;;;114.85;;
55483;SDS011;41345;51.704;5.146;2023-05-07T08:50:26;98.38;;;91.65;;
55483;SDS011;41345;51.704;5.146;2023-05-07T08:55:27;97.25;;;90.72;;
55483;SDS011;41345;51.704;5.146;2023-05-07T09:00:28;97.53;;;90.50;;
55483;SDS011;41345;51.704;5.146;2023-05-07T09:05:28;98.57;;;92.27;;
55483;SDS011;41345;51.704;5.146;2023-05-07T09:10:29;112.43;;;104.37;;
55483;SDS011;41345;51.704;5.146;2023-05-07T09:15:29;107.03;;;99.93;;
55483;SDS011;41345;51.704;5.146;2023-05-07T09:20:30;94.80;;;88.60;;
55483;SDS011;41345;51.704;5.146;2023-05-07T09:25:31;106.22;;;99.32;;
55483;SDS011;41345;51.704;5.146;2023-05-07T09:30:32;86.68;;;80.85;;
55483;SDS011;41345;51.704;5.146;2023-05-07T09:35:32;98.15;;;91.60;;
55483;SDS011;41345;51.704;5.146;2023-05-07T09:40:32;86.10;;;80.43;;
55483;SDS011;41345;51.704;5.146;2023-05-07T09:45:33;79.40;;;74.28;;
55483;SDS011;41345;51.704;5.146;2023-05-07T09:50:35;74.40;;;69.50;;
55483;SDS011;41345;51.704;5.146;2023-05-07T09:55:36;78.03;;;72.82;;
55483;SDS011;41345;51.704;5.146;2023-05-07T10:00:37;70.10;;;65.40;;
55483;SDS011;41345;51.704;5.146;2023-05-07T10:05:40;49.97;;;46.28;;
55483;SDS011;41345;51.704;5.146;2023-05-07T10:10:40;72.32;;;67.68;;
55483;SDS011;41345;51.704;5.146;2023-05-07T10:15:41;52.80;;;49.20;;
55483;SDS011;41345;51.704;5.146;2023-05-07T10:20:41;69.00;;;64.38;;
55483;SDS011;41345;51.704;5.146;2023-05-07T10:25:42;52.63;;;48.83;;
55483;SDS011;41345;51.704;5.146;2023-05-07T10:30:53;50.37;;;46.83;;
55483;SDS011;41345;51.704;5.146;2023-05-07T10:35:57;47.33;;;44.10;;
55483;SDS011;41345;51.704;5.146;2023-05-07T10:40:58;52.50;;;49.00;;
55483;SDS011;41345;51.704;5.146;2023-05-07T10:46:15;40.83;;;37.73;;
55483;SDS011;41345;51.704;5.146;2023-05-07T10:51:19;58.92;;;54.88;;
55483;SDS011;41345;51.704;5.146;2023-05-07T11:06:40;24.67;;;22.20;;
55483;SDS011;41345;51.704;5.146;2023-05-07T11:11:47;29.45;;;27.05;;
55483;SDS011;41345;51.704;5.146;2023-05-07T11:16:47;32.80;;;30.30;;
55483;SDS011;41345;51.704;5.146;2023-05-07T11:21:48;27.55;;;25.13;;
55483;SDS011;41345;51.704;5.146;2023-05-07T11:26:49;34.30;;;31.63;;
55483;SDS011;41345;51.704;5.146;2023-05-07T11:31:50;30.48;;;27.92;;
55483;SDS011;41345;51.704;5.146;2023-05-07T11:36:51;27.13;;;25.02;;
55483;SDS011;41345;51.704;5.146;2023-05-07T11:41:51;31.25;;;28.95;;
55483;SDS011;41345;51.704;5.146;2023-05-07T11:46:51;36.45;;;33.85;;
55483;SDS011;41345;51.704;5.146;2023-05-07T11:51:52;21.73;;;19.83;;
55483;SDS011;41345;51.704;5.146;2023-05-07T11:56:52;30.73;;;28.30;;
55483;SDS011;41345;51.704;5.146;2023-05-07T12:01:57;26.73;;;24.63;;
55483;SDS011;41345;51.704;5.146;2023-05-07T12:06:57;24.08;;;21.85;;
55483;SDS011;41345;51.704;5.146;2023-05-07T12:12:02;25.02;;;22.92;;
55483;SDS011;41345;51.704;5.146;2023-05-07T12:17:03;27.95;;;25.52;;
55483;SDS011;41345;51.704;5.146;2023-05-07T12:22:03;25.15;;;22.75;;
55483;SDS011;41345;51.704;5.146;2023-05-07T12:27:04;23.40;;;21.00;;
55483;SDS011;41345;51.704;5.146;2023-05-07T12:32:08;23.35;;;21.23;;
55483;SDS011;41345;51.704;5.146;2023-05-07T12:37:12;27.52;;;25.20;;
55483;SDS011;41345;51.704;5.146;2023-05-07T12:42:16;25.15;;;22.83;;
55483;SDS011;41345;51.704;5.146;2023-05-07T12:52:18;19.45;;;16.92;;
55483;SDS011;41345;51.704;5.146;2023-05-07T12:57:19;18.98;;;17.20;;
55483;SDS011;41345;51.704;5.146;2023-05-07T13:02:20;26.83;;;24.38;;
55483;SDS011;41345;51.704;5.146;2023-05-07T13:07:20;27.87;;;25.57;;
55483;SDS011;41345;51.704;5.146;2023-05-07T13:12:24;24.38;;;22.08;;
55483;SDS011;41345;51.704;5.146;2023-05-07T13:17:24;23.63;;;21.33;;
55483;SDS011;41345;51.704;5.146;2023-05-07T13:22:25;18.77;;;16.02;;
55483;SDS011;41345;51.704;5.146;2023-05-07T13:27:25;24.58;;;22.00;;
55483;SDS011;41345;51.704;5.146;2023-05-07T13:32:26;21.58;;;19.55;;
55483;SDS011;41345;51.704;5.146;2023-05-07T13:37:26;22.52;;;20.38;;
55483;SDS011;41345;51.704;5.146;2023-05-07T13:42:26;24.10;;;21.90;;
55483;SDS011;41345;51.704;5.146;2023-05-07T13:47:27;21.75;;;19.70;;
55483;SDS011;41345;51.704;5.146;2023-05-07T13:52:27;23.67;;;21.65;;
55483;SDS011;41345;51.704;5.146;2023-05-07T13:57:27;21.95;;;19.73;;
55483;SDS011;41345;51.704;5.146;2023-05-07T14:02:27;27.73;;;25.40;;
55483;SDS011;41345;51.704;5.146;2023-05-07T14:07:28;20.05;;;18.02;;
55483;SDS011;41345;51.704;5.146;2023-05-07T14:12:28;26.70;;;24.23;;
55483;SDS011;41345;51.704;5.146;2023-05-07T14:17:29;36.67;;;33.67;;
55483;SDS011;41345;51.704;5.146;2023-05-07T14:22:29;34.10;;;31.37;;
55483;SDS011;41345;51.704;5.146;2023-05-07T14:27:29;28.40;;;25.80;;
55483;SDS011;41345;51.704;5.146;2023-05-07T14:32:30;27.30;;;25.10;;
55483;SDS011;41345;51.704;5.146;2023-05-07T14:37:30;36.17;;;33.47;;
55483;SDS011;41345;51.704;5.146;2023-05-07T14:42:30;29.88;;;27.60;;
55483;SDS011;41345;51.704;5.146;2023-05-07T14:47:31;23.63;;;21.73;;
55483;SDS011;41345;51.704;5.146;2023-05-07T14:52:31;27.50;;;25.37;;
55483;SDS011;41345;51.704;5.146;2023-05-07T14:57:31;17.10;;;15.50;;
55483;SDS011;41345;51.704;5.146;2023-05-07T15:02:34;19.97;;;18.37;;
55483;SDS011;41345;51.704;5.146;2023-05-07T15:07:35;22.88;;;21.38;;
55483;SDS011;41345;51.704;5.146;2023-05-07T15:12:35;35.72;;;33.33;;
55483;SDS011;41345;51.704;5.146;2023-05-07T15:17:35;42.23;;;39.77;;
55483;SDS011;41345;51.704;5.146;2023-05-07T15:22:36;59.87;;;56.50;;
55483;SDS011;41345;51.704;5.146;2023-05-07T15:27:37;57.42;;;53.92;;
55483;SDS011;41345;51.704;5.146;2023-05-07T15:32:37;64.43;;;60.17;;
55483;SDS011;41345;51.704;5.146;2023-05-07T15:37:38;70.90;;;66.40;;
55483;SDS011;41345;51.704;5.146;2023-05-07T15:42:38;80.47;;;75.18;;
55483;SDS011;41345;51.704;5.146;2023-05-07T15:47:38;93.83;;;87.93;;
55483;SDS011;41345;51.704;5.146;2023-05-07T15:52:39;97.80;;;91.37;;
55483;SDS011;41345;51.704;5.146;2023-05-07T15:57:40;101.15;;;94.45;;
55483;SDS011;41345;51.704;5.146;2023-05-07T16:02:41;94.45;;;88.22;;
55483;SDS011;41345;51.704;5.146;2023-05-07T16:07:41;79.47;;;74.38;;
55483;SDS011;41345;51.704;5.146;2023-05-07T16:12:43;86.90;;;81.22;;
55483;SDS011;41345;51.704;5.146;2023-05-07T16:17:45;96.55;;;89.82;;
55483;SDS011;41345;51.704;5.146;2023-05-07T16:22:45;91.78;;;85.78;;
55483;SDS011;41345;51.704;5.146;2023-05-07T16:27:45;89.68;;;83.38;;
55483;SDS011;41345;51.704;5.146;2023-05-07T16:32:46;100.50;;;93.93;;
55483;SDS011;41345;51.704;5.146;2023-05-07T16:37:46;110.33;;;102.80;;
55483;SDS011;41345;51.704;5.146;2023-05-07T16:42:46;106.25;;;99.53;;
55483;SDS011;41345;51.704;5.146;2023-05-07T16:47:47;81.60;;;76.55;;
55483;SDS011;41345;51.704;5.146;2023-05-07T16:52:47;106.97;;;100.10;;
55483;SDS011;41345;51.704;5.146;2023-05-07T16:57:47;103.60;;;97.27;;
55483;SDS011;41345;51.704;5.146;2023-05-07T17:02:48;98.30;;;92.40;;
55483;SDS011;41345;51.704;5.146;2023-05-07T17:07:48;98.32;;;92.07;;
55483;SDS011;41345;51.704;5.146;2023-05-07T17:12:48;111.65;;;104.78;;
55483;SDS011;41345;51.704;5.146;2023-05-07T17:17:49;117.60;;;110.20;;
55483;SDS011;41345;51.704;5.146;2023-05-07T17:22:49;104.50;;;97.70;;
55483;SDS011;41345;51.704;5.146;2023-05-07T17:27:49;90.70;;;84.78;;
55483;SDS011;41345;51.704;5.146;2023-05-07T17:32:50;97.53;;;91.00;;
55483;SDS011;41345;51.704;5.146;2023-05-07T17:37:50;93.28;;;87.57;;
55483;SDS011;41345;51.704;5.146;2023-05-07T17:42:51;94.95;;;89.45;;
55483;SDS011;41345;51.704;5.146;2023-05-07T17:47:51;88.37;;;83.10;;
55483;SDS011;41345;51.704;5.146;2023-05-07T17:52:52;101.20;;;95.40;;
55483;SDS011;41345;51.704;5.146;2023-05-07T17:57:52;98.65;;;92.45;;
55483;SDS011;41345;51.704;5.146;2023-05-07T18:02:52;117.17;;;110.37;;
55483;SDS011;41345;51.704;5.146;2023-05-07T18:07:53;98.68;;;93.07;;
55483;SDS011;41345;51.704;5.146;2023-05-07T18:12:53;90.63;;;85.78;;
55483;SDS011;41345;51.704;5.146;2023-05-07T18:17:53;96.50;;;91.40;;
55483;SDS011;41345;51.704;5.146;2023-05-07T18:22:53;95.55;;;90.40;;
55483;SDS011;41345;51.704;5.146;2023-05-07T18:27:54;104.85;;;99.40;;
55483;SDS011;41345;51.704;5.146;2023-05-07T18:32:54;81.03;;;76.78;;
55483;SDS011;41345;51.704;5.146;2023-05-07T18:37:54;79.07;;;74.88;;
55483;SDS011;41345;51.704;5.146;2023-05-07T18:42:55;78.03;;;73.63;;
55483;SDS011;41345;51.704;5.146;2023-05-07T18:47:55;81.47;;;77.17;;
55483;SDS011;41345;51.704;5.146;2023-05-07T18:52:55;83.28;;;78.78;;
55483;SDS011;41345;51.704;5.146;2023-05-07T18:57:56;76.03;;;71.82;;
55483;SDS011;41345;51.704;5.146;2023-05-07T19:02:56;75.50;;;71.30;;
55483;SDS011;41345;51.704;5.146;2023-05-07T19:07:56;90.60;;;85.78;;
55483;SDS011;41345;51.704;5.146;2023-05-07T19:12:56;94.90;;;89.55;;
55483;SDS011;41345;51.704;5.146;2023-05-07T19:17:57;101.70;;;96.07;;
55483;SDS011;41345;51.704;5.146;2023-05-07T19:22:57;105.35;;;99.57;;
55483;SDS011;41345;51.704;5.146;2023-05-07T19:27:57;79.38;;;74.72;;
55483;SDS011;41345;51.704;5.146;2023-05-07T19:32:58;93.73;;;88.77;;
55483;SDS011;41345;51.704;5.146;2023-05-07T19:37:58;100.80;;;95.40;;
55483;SDS011;41345;51.704;5.146;2023-05-07T19:42:58;111.35;;;104.97;;
55483;SDS011;41345;51.704;5.146;2023-05-07T19:48:00;112.47;;;106.13;;
55483;SDS011;41345;51.704;5.146;2023-05-07T19:53:00;97.93;;;92.20;;
55483;SDS011;41345;51.704;5.146;2023-05-07T19:58:01;90.82;;;85.65;;
55483;SDS011;41345;51.704;5.146;2023-05-07T20:03:01;104.07;;;98.27;;
55483;SDS011;41345;51.704;5.146;2023-05-07T20:08:01;114.13;;;107.82;;
55483;SDS011;41345;51.704;5.146;2023-05-07T20:13:02;110.53;;;104.32;;
55483;SDS011;41345;51.704;5.146;2023-05-07T20:18:03;109.75;;;103.85;;
55483;SDS011;41345;51.704;5.146;2023-05-07T20:23:03;108.43;;;102.77;;
55483;SDS011;41345;51.704;5.146;2023-05-07T20:28:03;116.10;;;109.90;;
55483;SDS011;41345;51.704;5.146;2023-05-07T20:33:03;97.57;;;92.35;;
55483;SDS011;41345;51.704;5.146;2023-05-07T20:38:04;116.30;;;110.25;;
55483;SDS011;41345;51.704;5.146;2023-05-07T20:43:04;123.20;;;116.28;;
55483;SDS011;41345;51.704;5.146;2023-05-07T20:48:05;116.00;;;109.53;;
55483;SDS011;41345;51.704;5.146;2023-05-07T20:53:05;110.93;;;104.97;;
55483;SDS011;41345;51.704;5.146;2023-05-07T20:58:05;131.10;;;123.82;;
55483;SDS011;41345;51.704;5.146;2023-05-07T21:03:06;126.93;;;120.15;;
55483;SDS011;41345;51.704;5.146;2023-05-07T21:08:06;128.80;;;121.47;;
55483;SDS011;41345;51.704;5.146;2023-05-07T21:13:07;120.30;;;114.00;;
55483;SDS011;41345;51.704;5.146;2023-05-07T21:18:08;133.73;;;126.50;;
55483;SDS011;41345;51.704;5.146;2023-05-07T21:23:08;132.20;;;124.90;;
55483;SDS011;41345;51.704;5.146;2023-05-07T21:28:08;119.35;;;112.75;;
55483;SDS011;41345;51.704;5.146;2023-05-07T21:33:08;130.33;;;123.17;;
55483;SDS011;41345;51.704;5.146;2023-05-07T21:38:09;124.95;;;118.22;;
55483;SDS011;41345;51.704;5.146;2023-05-07T21:43:11;124.60;;;117.85;;
55483;SDS011;41345;51.704;5.146;2023-05-07T21:48:12;126.03;;;119.03;;
55483;SDS011;41345;51.704;5.146;2023-05-07T21:53:12;137.77;;;130.48;;
55483;SDS011;41345;51.704;5.146;2023-05-07T21:58:13;141.50;;;133.77;;
55483;SDS011;41345;51.704;5.146;2023-05-07T22:03:13;123.45;;;116.85;;
55483;SDS011;41345;51.704;5.146;2023-05-07T22:08:13;129.90;;;122.93;;
55483;SDS011;41345;51.704;5.146;2023-05-07T22:13:13;138.88;;;130.90;;
55483;SDS011;41345;51.704;5.146;2023-05-07T22:18:14;133.07;;;125.82;;
55483;SDS011;41345;51.704;5.146;2023-05-07T22:23:14;136.00;;;128.50;;
55483;SDS011;41345;51.704;5.146;2023-05-07T22:28:14;127.43;;;120.07;;
55483;SDS011;41345;51.704;5.146;2023-05-07T22:33:14;129.23;;;122.20;;
55483;SDS011;41345;51.704;5.146;2023-05-07T22:38:15;146.82;;;138.52;;
55483;SDS011;41345;51.704;5.146;2023-05-07T22:43:15;128.55;;;121.32;;
55483;SDS011;41345;51.704;5.146;2023-05-07T22:48:15;130.85;;;123.85;;
55483;SDS011;41345;51.704;5.146;2023-05-07T22:53:15;139.68;;;132.13;;
55483;SDS011;41345;51.704;5.146;2023-05-07T22:58:16;148.30;;;140.23;;
55483;SDS011;41345;51.704;5.146;2023-05-07T23:03:16;141.20;;;133.00;;
55483;SDS011;41345;51.704;5.146;2023-05-07T23:08:16;157.18;;;147.77;;
55483;SDS011;41345;51.704;5.146;2023-05-07T23:13:17;123.57;;;116.47;;
55483;SDS011;41345;51.704;5.146;2023-05-07T23:18:17;138.23;;;130.23;;
55483;SDS011;41345;51.704;5.146;2023-05-07T23:23:17;128.27;;;121.03;;
55483;SDS011;41345;51.704;5.146;2023-05-07T23:28:18;126.43;;;119.20;;
55483;SDS011;41345;51.704;5.146;2023-05-07T23:33:18;128.80;;;121.60;;
55483;SDS011;41345;51.704;5.146;2023-05-07T23:38:18;123.82;;;117.13;;
55483;SDS011;41345;51.704;5.146;2023-05-07T23:43:19;124.60;;;117.38;;
55483;SDS011;41345;51.704;5.146;2023-05-07T23:48:20;136.50;;;128.40;;
55483;SDS011;41345;51.704;5.146;2023-05-07T23:53:20;153.45;;;144.98;;
55483;SDS011;41345;51.704;5.146;2023-05-07T23:58:20;149.38;;;140.70;;
